Startpagina
METAR-TAF:

METAR-TAF

Vliegvelden :

Flughafen Berlin-Tegel

Berlijn, Duitsland

breedte: 52-34N, lengte: 013-19E, hoogte: 37 m

Actueel weer

Dit bericht is 21 minuten geleden gemaakt, om 20:50 UTC
Wind 5 kt uit het noordoosten, variërend tussen het noorden en het oosten
Temperatuur 19°C
Vochtigheid 46%
Druk 1016 hPa
Zicht 10 km of meer
geen wolken onder 1500 m en geen cumulonimbus

METAR: EDDT 222050Z 05005KT 010V080 CAVOK 19/07 Q1016 NOSIG

Tijdstip: 23:11 (21:11 UTC)

Verwachting

Dit bericht is 4 uur en het 11 minuten geleden gemaakt, om 17:00 UTC
Verwachting geldig van 22 om 18 UTC tot 23 om 18 UTC
Wind 4 kt uit het noordoosten
Zicht 10 km of meer
geen wolken onder 1500 m en geen cumulonimbus
Wijzigt naar
van 23 om 05 UTC tot 23 om 07 UTC
Wind 9 kt uit het noordoosten

TAF: EDDT 221700Z 2218/2318 04004KT CAVOK BECMG 2305/2307 05009KT

Waarnemingen en weersverwachtingen van meer dan 4000 vliegvelden (METAR en TAF).

De beschikbare stations zijn de gele en rode punten op de kaart.

Ga met uw muis naar het station om de naam te zien.

Klik dan om waarnemingen en weersverwachtingen te zien.

kaart wijzigen: klik op de groene knoppen met een zwart kruis om in te zoomen, op de groene knop met een streepje om uit te zoomen of op de groene pijlen voor aangrenzende kaarten.


METAR-TAF: